South Chaplin, Connecticut
Current Conditions -  °F | °C
As of 8:52 PM on Friday 24 Oct 2014 (Local Time) from KIJD Reporting Station
Overcast Overcast  
Wind Chill: 51°   Ceiling: 3200
Heat Index: 51°   Visibility: 10mi
Dew Point: 42°   Wind: 7mph
Humidity: 71%   Direction: 310°NW
Pressure: 29.77"   Gusts: NA
Location:  41.7601°N, 72.123°W
Report Text: KIJD 250052Z AUTO 31006KT 10SM OVC032 11/06 A2977 RMK AO2 SLP080 T01060056
Loading
Personal Weather Stations






























Interactive Weather Map New forecast layout! Learn more

10-Day Weather Forecast

Advertisements
Track Severe Weather on mobile